createdAt,value
2022-11-05T00:06:48.046Z,0
2022-11-05T00:12:06.792Z,0
2022-11-05T00:22:46.357Z,0
2022-11-05T00:28:04.265Z,0
2022-11-05T00:38:43.912Z,0
2022-11-05T00:45:18.082Z,0
2022-11-05T00:49:21.275Z,0
2022-11-05T00:54:40.611Z,0
2022-11-05T01:05:28.917Z,0
2022-11-05T01:15:58.138Z,0
2022-11-05T01:21:18.052Z,0
2022-11-05T01:31:56.129Z,0
2022-11-05T01:47:53.071Z,0
2022-11-05T02:09:10.170Z,0
2022-11-05T02:14:37.691Z,0
2022-11-05T02:25:08.326Z,0
2022-11-05T02:41:07.755Z,0
2022-11-05T02:57:06.284Z,0
2022-11-05T03:07:44.555Z,0
2022-11-05T03:13:04.167Z,0
2022-11-05T03:23:42.657Z,0
2022-11-05T03:39:39.668Z,0
2022-11-05T03:50:17.922Z,0
2022-11-05T03:55:37.129Z,0
2022-11-05T04:00:54.936Z,0
2022-11-05T04:06:14.574Z,0
2022-11-05T04:22:12.418Z,0
2022-11-05T04:32:50.670Z,0
2022-11-05T04:38:10.115Z,0
2022-11-05T04:43:29.992Z,0
2022-11-05T04:48:49.737Z,0
2022-11-05T05:04:46.826Z,0
2022-11-05T05:15:25.089Z,0
2022-11-05T05:20:44.351Z,0
2022-11-05T05:31:23.355Z,0
2022-11-05T05:36:41.514Z,0
2022-11-05T05:47:20.749Z,0
2022-11-05T06:03:17.764Z,0
2022-11-05T06:13:56.884Z,3
2022-11-05T06:19:15.602Z,10
2022-11-05T06:29:53.953Z,15.34
2022-11-05T06:35:12.975Z,16.9
2022-11-05T06:45:52.565Z,23.47
2022-11-05T07:01:49.451Z,24.4
2022-11-05T07:12:27.862Z,28.3
2022-11-05T07:23:07.180Z,38.32
2022-11-05T07:28:26.583Z,44.64
2022-11-05T07:44:48.495Z,57.97
2022-11-05T08:00:46.299Z,56.14
2022-11-05T08:16:44.715Z,63.66
2022-11-05T08:27:22.602Z,51.52
2022-11-05T08:43:19.699Z,68.21
2022-11-05T08:53:58.407Z,61.29
2022-11-05T09:00:32.573Z,57.9
2022-11-05T09:04:35.503Z,52.53
2022-11-05T09:09:55.214Z,63.07
2022-11-05T09:15:15.319Z,60.73
2022-11-05T09:20:35.029Z,64.05
2022-11-05T09:25:53.452Z,61.24
2022-11-05T09:36:32.464Z,69.01
2022-11-05T09:47:11.380Z,72.98
2022-11-05T09:52:30.016Z,71.71
2022-11-05T10:03:09.708Z,85.43
2022-11-05T10:19:07.739Z,125.99
2022-11-05T10:35:06.557Z,184.52
2022-11-05T10:45:43.863Z,228.51
2022-11-05T10:51:03.598Z,269.1
2022-11-05T11:01:41.492Z,379.64
2022-11-05T11:07:00.526Z,465.55
2022-11-05T11:17:39.144Z,231.37
2022-11-05T11:28:18.535Z,115.86
2022-11-05T11:44:15.248Z,84.59
2022-11-05T11:49:34.660Z,60.35
2022-11-05T12:00:21.870Z,61.53
2022-11-05T12:10:51.354Z,62.94
2022-11-05T12:16:10.406Z,408.01
2022-11-05T12:26:48.553Z,459.01
2022-11-05T12:32:07.916Z,0
2022-11-05T12:42:46.321Z,459.01
2022-11-05T12:53:24.332Z,484.51
2022-11-05T12:58:44.042Z,420.76
2022-11-05T13:09:23.391Z,487.06
2022-11-05T13:25:21.358Z,617.11
2022-11-05T13:35:59.466Z,430.96
2022-11-05T13:41:19.166Z,0
2022-11-05T13:51:57.538Z,390.16
2022-11-05T13:57:17.254Z,492.16
2022-11-05T14:02:36.791Z,535.51
2022-11-05T14:07:56.103Z,497.26
2022-11-05T14:23:53.445Z,436.39
2022-11-05T14:34:31.907Z,33.48
2022-11-05T14:39:50.882Z,38.13
2022-11-05T14:50:29.799Z,82.67
2022-11-05T14:55:48.730Z,69.36
2022-11-05T15:06:27.060Z,37.4
2022-11-05T15:17:06.260Z,25.66
2022-11-05T15:22:25.051Z,25.82
2022-11-05T15:33:03.044Z,23.8
2022-11-05T15:43:45.242Z,18.68
2022-11-05T15:54:30.782Z,17
2022-11-05T15:59:38.242Z,11
2022-11-05T16:10:17.756Z,0
2022-11-05T16:15:36.806Z,0
2022-11-05T16:26:25.427Z,0
2022-11-05T16:36:54.321Z,0
2022-11-05T16:42:14.251Z,0
2022-11-05T16:52:53.198Z,0
2022-11-05T17:08:50.952Z,0
2022-11-05T17:14:10.137Z,0
2022-11-05T17:24:48.650Z,0
2022-11-05T17:35:26.366Z,0
2022-11-05T17:46:04.828Z,0
2022-11-05T17:51:23.405Z,0
2022-11-05T17:56:44.396Z,0
2022-11-05T18:07:22.723Z,0
2022-11-05T18:19:15.647Z,0
2022-11-05T18:23:19.459Z,0
2022-11-05T18:28:39.049Z,0
2022-11-05T18:33:58.561Z,0
2022-11-05T18:39:17.246Z,0
2022-11-05T18:49:55.481Z,0
2022-11-05T19:05:52.740Z,0
2022-11-05T19:16:31.865Z,0
2022-11-05T19:21:51.255Z,0
2022-11-05T19:27:10.722Z,0
2022-11-05T19:32:31.145Z,0
2022-11-05T19:37:50.647Z,0
2022-11-05T19:50:08.972Z,0
2022-11-05T19:53:49.183Z,0
2022-11-05T20:04:26.373Z,0
2022-11-05T20:15:04.994Z,0
2022-11-05T20:25:43.258Z,0
2022-11-05T20:31:02.382Z,0
2022-11-05T20:46:59.780Z,0
2022-11-05T20:57:37.172Z,0
2022-11-05T21:08:15.609Z,0
2022-11-05T21:13:35.029Z,0
2022-11-05T21:24:12.829Z,0
2022-11-05T21:29:32.635Z,0
2022-11-05T21:40:11.403Z,0
2022-11-05T21:45:30.816Z,0
2022-11-05T21:56:10.176Z,0
2022-11-05T22:06:48.780Z,0
2022-11-05T22:12:07.959Z,0
2022-11-05T22:22:46.419Z,0
2022-11-05T22:33:25.077Z,0
2022-11-05T22:38:43.833Z,0
2022-11-05T22:49:23.387Z,0
2022-11-05T23:00:02.412Z,0
2022-11-05T23:05:22.900Z,0
2022-11-05T23:16:00.836Z,0
2022-11-05T23:21:22.961Z,0
2022-11-05T23:31:58.180Z,0
2022-11-05T23:47:55.939Z,0
2022-11-05T23:58:34.566Z,0
